sensor_id;sensor_type;location;lat;lon;timestamp;temperature;humidity
11501;DHT22;5807;51.606;7.624;2022-10-03T00:00:26;8.00;99.90
11501;DHT22;5807;51.606;7.624;2022-10-03T00:03:28;8.40;99.90
11501;DHT22;5807;51.606;7.624;2022-10-03T00:06:08;7.90;99.90
11501;DHT22;5807;51.606;7.624;2022-10-03T00:08:55;7.90;99.90
11501;DHT22;5807;51.606;7.624;2022-10-03T00:11:33;8.50;99.90
11501;DHT22;5807;51.606;7.624;2022-10-03T00:14:12;7.90;99.90
11501;DHT22;5807;51.606;7.624;2022-10-03T00:16:47;7.80;99.90
11501;DHT22;5807;51.606;7.624;2022-10-03T00:19:25;7.70;99.90
11501;DHT22;5807;51.606;7.624;2022-10-03T00:22:05;7.90;99.90
11501;DHT22;5807;51.606;7.624;2022-10-03T00:24:44;7.60;99.90
11501;DHT22;5807;51.606;7.624;2022-10-03T00:27:16;8.30;99.90
11501;DHT22;5807;51.606;7.624;2022-10-03T00:29:55;7.80;99.90
11501;DHT22;5807;51.606;7.624;2022-10-03T00:32:35;7.90;99.90
11501;DHT22;5807;51.606;7.624;2022-10-03T00:35:19;7.80;99.90
11501;DHT22;5807;51.606;7.624;2022-10-03T00:38:03;9.10;99.90
11501;DHT22;5807;51.606;7.624;2022-10-03T00:47:06;7.80;99.90
11501;DHT22;5807;51.606;7.624;2022-10-03T00:53:06;7.90;99.90
11501;DHT22;5807;51.606;7.624;2022-10-03T00:55:46;7.90;99.90
11501;DHT22;5807;51.606;7.624;2022-10-03T00:58:34;7.90;99.90
11501;DHT22;5807;51.606;7.624;2022-10-03T01:01:19;8.00;99.90
11501;DHT22;5807;51.606;7.624;2022-10-03T01:03:54;8.10;99.90
11501;DHT22;5807;51.606;7.624;2022-10-03T01:06:29;8.10;99.90
11501;DHT22;5807;51.606;7.624;2022-10-03T01:09:11;8.10;99.90
11501;DHT22;5807;51.606;7.624;2022-10-03T01:11:54;8.20;99.90
11501;DHT22;5807;51.606;7.624;2022-10-03T01:14:37;8.10;99.90
11501;DHT22;5807;51.606;7.624;2022-10-03T01:17:12;8.20;99.90
11501;DHT22;5807;51.606;7.624;2022-10-03T01:20:02;8.10;99.90
11501;DHT22;5807;51.606;7.624;2022-10-03T01:22:57;8.20;99.90
11501;DHT22;5807;51.606;7.624;2022-10-03T01:25:37;8.20;99.90
11501;DHT22;5807;51.606;7.624;2022-10-03T01:28:20;8.10;99.90
11501;DHT22;5807;51.606;7.624;2022-10-03T01:31:11;8.10;99.90
11501;DHT22;5807;51.606;7.624;2022-10-03T01:33:41;8.20;99.90
11501;DHT22;5807;51.606;7.624;2022-10-03T01:36:14;8.20;99.90
11501;DHT22;5807;51.606;7.624;2022-10-03T01:38:47;8.20;99.90
11501;DHT22;5807;51.606;7.624;2022-10-03T01:41:24;8.20;99.90
11501;DHT22;5807;51.606;7.624;2022-10-03T01:43:58;8.10;99.90
11501;DHT22;5807;51.606;7.624;2022-10-03T01:46:36;8.20;99.90
11501;DHT22;5807;51.606;7.624;2022-10-03T01:49:09;8.10;99.90
11501;DHT22;5807;51.606;7.624;2022-10-03T01:51:44;8.10;99.90
11501;DHT22;5807;51.606;7.624;2022-10-03T01:54:18;8.10;99.90
11501;DHT22;5807;51.606;7.624;2022-10-03T01:56:54;8.10;99.90
11501;DHT22;5807;51.606;7.624;2022-10-03T01:59:33;8.00;99.90
11501;DHT22;5807;51.606;7.624;2022-10-03T02:02:08;9.30;99.90
11501;DHT22;5807;51.606;7.624;2022-10-03T02:04:45;8.00;99.90
11501;DHT22;5807;51.606;7.624;2022-10-03T02:07:21;7.90;99.90
11501;DHT22;5807;51.606;7.624;2022-10-03T02:09:59;7.90;99.90
11501;DHT22;5807;51.606;7.624;2022-10-03T02:12:31;7.90;99.90
11501;DHT22;5807;51.606;7.624;2022-10-03T02:15:10;7.80;99.90
11501;DHT22;5807;51.606;7.624;2022-10-03T02:17:50;7.80;99.90
11501;DHT22;5807;51.606;7.624;2022-10-03T02:20:24;8.90;99.90
11501;DHT22;5807;51.606;7.624;2022-10-03T02:22:55;7.50;99.90
11501;DHT22;5807;51.606;7.624;2022-10-03T02:25:26;7.80;99.90
11501;DHT22;5807;51.606;7.624;2022-10-03T02:28:27;7.80;99.90
11501;DHT22;5807;51.606;7.624;2022-10-03T02:31:22;7.80;99.90
11501;DHT22;5807;51.606;7.624;2022-10-03T02:37:24;7.80;99.90
11501;DHT22;5807;51.606;7.624;2022-10-03T02:40:21;7.80;99.90
11501;DHT22;5807;51.606;7.624;2022-10-03T02:46:14;7.70;99.90
11501;DHT22;5807;51.606;7.624;2022-10-03T02:49:10;7.70;99.90
11501;DHT22;5807;51.606;7.624;2022-10-03T02:52:08;7.70;99.90
11501;DHT22;5807;51.606;7.624;2022-10-03T02:54:54;7.70;99.90
11501;DHT22;5807;51.606;7.624;2022-10-03T02:58:06;7.20;99.90
11501;DHT22;5807;51.606;7.624;2022-10-03T03:01:00;7.60;99.90
11501;DHT22;5807;51.606;7.624;2022-10-03T03:03:59;7.70;99.90
11501;DHT22;5807;51.606;7.624;2022-10-03T03:06:56;7.60;99.90
11501;DHT22;5807;51.606;7.624;2022-10-03T03:09:52;7.60;99.90
11501;DHT22;5807;51.606;7.624;2022-10-03T03:16:03;7.60;99.90
11501;DHT22;5807;51.606;7.624;2022-10-03T03:18:37;7.60;99.90
11501;DHT22;5807;51.606;7.624;2022-10-03T03:21:14;7.60;99.90
11501;DHT22;5807;51.606;7.624;2022-10-03T03:27:03;10.30;99.90
11501;DHT22;5807;51.606;7.624;2022-10-03T03:29:42;7.60;99.90
11501;DHT22;5807;51.606;7.624;2022-10-03T03:32:19;7.60;99.90
11501;DHT22;5807;51.606;7.624;2022-10-03T03:34:57;7.60;99.90
11501;DHT22;5807;51.606;7.624;2022-10-03T03:37:34;7.60;99.90
11501;DHT22;5807;51.606;7.624;2022-10-03T03:40:16;7.60;99.90
11501;DHT22;5807;51.606;7.624;2022-10-03T03:43:01;7.50;99.90
11501;DHT22;5807;51.606;7.624;2022-10-03T03:45:36;8.60;99.90
11501;DHT22;5807;51.606;7.624;2022-10-03T03:51:17;7.50;99.90
11501;DHT22;5807;51.606;7.624;2022-10-03T03:54:19;7.50;99.90
11501;DHT22;5807;51.606;7.624;2022-10-03T03:59:52;7.60;99.90
11501;DHT22;5807;51.606;7.624;2022-10-03T04:02:36;7.40;99.90
11501;DHT22;5807;51.606;7.624;2022-10-03T04:05:16;7.70;99.90
11501;DHT22;5807;51.606;7.624;2022-10-03T04:07:51;7.70;99.90
11501;DHT22;5807;51.606;7.624;2022-10-03T04:10:32;8.40;99.90
11501;DHT22;5807;51.606;7.624;2022-10-03T04:13:18;7.90;99.90
11501;DHT22;5807;51.606;7.624;2022-10-03T04:16:00;8.00;99.90
11501;DHT22;5807;51.606;7.624;2022-10-03T04:18:47;8.00;99.90
11501;DHT22;5807;51.606;7.624;2022-10-03T04:21:53;8.10;99.90
11501;DHT22;5807;51.606;7.624;2022-10-03T04:24:41;8.10;99.90
11501;DHT22;5807;51.606;7.624;2022-10-03T04:27:23;8.20;99.90
11501;DHT22;5807;51.606;7.624;2022-10-03T04:30:01;8.30;99.90
11501;DHT22;5807;51.606;7.624;2022-10-03T04:33:06;8.40;99.90
11501;DHT22;5807;51.606;7.624;2022-10-03T04:35:49;8.40;99.90
11501;DHT22;5807;51.606;7.624;2022-10-03T04:38:25;8.50;99.90
11501;DHT22;5807;51.606;7.624;2022-10-03T04:41:12;8.50;99.90
11501;DHT22;5807;51.606;7.624;2022-10-03T04:43:50;8.50;99.90
11501;DHT22;5807;51.606;7.624;2022-10-03T04:46:24;8.60;99.90
11501;DHT22;5807;51.606;7.624;2022-10-03T04:48:58;8.90;99.90
11501;DHT22;5807;51.606;7.624;2022-10-03T04:51:40;7.80;99.90
11501;DHT22;5807;51.606;7.624;2022-10-03T04:54:15;8.60;99.90
11501;DHT22;5807;51.606;7.624;2022-10-03T04:56:51;8.60;99.90
11501;DHT22;5807;51.606;7.624;2022-10-03T04:59:45;8.70;99.90
11501;DHT22;5807;51.606;7.624;2022-10-03T05:02:25;8.50;99.90
11501;DHT22;5807;51.606;7.624;2022-10-03T05:07:54;8.40;99.90
11501;DHT22;5807;51.606;7.624;2022-10-03T05:10:47;8.40;99.90
11501;DHT22;5807;51.606;7.624;2022-10-03T05:13:27;10.30;99.90
11501;DHT22;5807;51.606;7.624;2022-10-03T05:16:06;8.30;99.90
11501;DHT22;5807;51.606;7.624;2022-10-03T05:18:40;8.30;99.90
11501;DHT22;5807;51.606;7.624;2022-10-03T05:21:13;8.20;99.90
11501;DHT22;5807;51.606;7.624;2022-10-03T05:23:48;8.20;99.90
11501;DHT22;5807;51.606;7.624;2022-10-03T05:26:22;8.10;99.90
11501;DHT22;5807;51.606;7.624;2022-10-03T05:28:58;8.10;99.90
11501;DHT22;5807;51.606;7.624;2022-10-03T05:31:41;8.10;99.90
11501;DHT22;5807;51.606;7.624;2022-10-03T05:34:20;8.00;99.90
11501;DHT22;5807;51.606;7.624;2022-10-03T05:37:22;8.00;99.90
11501;DHT22;5807;51.606;7.624;2022-10-03T05:39:55;7.90;99.90
11501;DHT22;5807;51.606;7.624;2022-10-03T05:42:35;7.80;99.90
11501;DHT22;5807;51.606;7.624;2022-10-03T05:45:09;7.70;99.90
11501;DHT22;5807;51.606;7.624;2022-10-03T05:47:51;7.70;99.90
11501;DHT22;5807;51.606;7.624;2022-10-03T05:51:05;7.70;99.90
11501;DHT22;5807;51.606;7.624;2022-10-03T05:53:56;7.50;99.90
11501;DHT22;5807;51.606;7.624;2022-10-03T05:59:42;7.50;99.90
11501;DHT22;5807;51.606;7.624;2022-10-03T06:05:29;7.50;99.90
11501;DHT22;5807;51.606;7.624;2022-10-03T06:08:17;7.50;99.90
11501;DHT22;5807;51.606;7.624;2022-10-03T06:10:53;7.50;99.90
11501;DHT22;5807;51.606;7.624;2022-10-03T06:13:36;7.50;99.90
11501;DHT22;5807;51.606;7.624;2022-10-03T06:16:21;7.20;99.90
11501;DHT22;5807;51.606;7.624;2022-10-03T06:19:07;7.60;99.90
11501;DHT22;5807;51.606;7.624;2022-10-03T06:25:17;7.70;99.90
11501;DHT22;5807;51.606;7.624;2022-10-03T06:28:28;7.80;99.90
11501;DHT22;5807;51.606;7.624;2022-10-03T06:31:28;7.90;99.90
11501;DHT22;5807;51.606;7.624;2022-10-03T06:34:28;8.00;99.90
11501;DHT22;5807;51.606;7.624;2022-10-03T06:37:18;8.10;99.90
11501;DHT22;5807;51.606;7.624;2022-10-03T06:46:17;8.40;99.90
11501;DHT22;5807;51.606;7.624;2022-10-03T06:49:18;8.60;99.90
11501;DHT22;5807;51.606;7.624;2022-10-03T06:52:06;8.90;99.90
11501;DHT22;5807;51.606;7.624;2022-10-03T06:55:18;9.10;99.90
11501;DHT22;5807;51.606;7.624;2022-10-03T06:58:05;9.40;99.90
11501;DHT22;5807;51.606;7.624;2022-10-03T07:00:47;9.60;99.90
11501;DHT22;5807;51.606;7.624;2022-10-03T07:06:40;10.00;99.90
11501;DHT22;5807;51.606;7.624;2022-10-03T07:09:34;10.30;99.90
11501;DHT22;5807;51.606;7.624;2022-10-03T07:12:54;10.40;99.90
11501;DHT22;5807;51.606;7.624;2022-10-03T07:18:55;10.80;99.90
11501;DHT22;5807;51.606;7.624;2022-10-03T07:24:50;11.10;99.90
11501;DHT22;5807;51.606;7.624;2022-10-03T07:27:44;11.20;99.90
11501;DHT22;5807;51.606;7.624;2022-10-03T07:30:17;11.40;99.90
11501;DHT22;5807;51.606;7.624;2022-10-03T07:35:40;11.50;99.90
11501;DHT22;5807;51.606;7.624;2022-10-03T07:38:57;11.50;99.90
11501;DHT22;5807;51.606;7.624;2022-10-03T07:41:51;11.70;99.90
11501;DHT22;5807;51.606;7.624;2022-10-03T07:45:05;11.90;99.90
11501;DHT22;5807;51.606;7.624;2022-10-03T07:50:57;12.30;99.90
11501;DHT22;5807;51.606;7.624;2022-10-03T07:57:16;12.60;99.90
11501;DHT22;5807;51.606;7.624;2022-10-03T08:00:16;12.70;99.90
11501;DHT22;5807;51.606;7.624;2022-10-03T08:03:20;12.80;99.90
11501;DHT22;5807;51.606;7.624;2022-10-03T08:06:17;13.00;99.90
11501;DHT22;5807;51.606;7.624;2022-10-03T08:12:31;13.30;99.90
11501;DHT22;5807;51.606;7.624;2022-10-03T08:15:08;13.50;99.90
11501;DHT22;5807;51.606;7.624;2022-10-03T08:17:58;13.50;99.90
11501;DHT22;5807;51.606;7.624;2022-10-03T08:20:54;13.90;99.90
11501;DHT22;5807;51.606;7.624;2022-10-03T08:26:46;14.30;99.90
11501;DHT22;5807;51.606;7.624;2022-10-03T08:29:31;14.30;99.90
11501;DHT22;5807;51.606;7.624;2022-10-03T08:35:43;14.40;99.90
11501;DHT22;5807;51.606;7.624;2022-10-03T08:41:55;14.90;99.90
11501;DHT22;5807;51.606;7.624;2022-10-03T08:45:03;15.00;99.90
11501;DHT22;5807;51.606;7.624;2022-10-03T08:50:59;14.90;99.90
11501;DHT22;5807;51.606;7.624;2022-10-03T08:53:49;15.00;99.90
11501;DHT22;5807;51.606;7.624;2022-10-03T08:56:51;15.20;99.90
11501;DHT22;5807;51.606;7.624;2022-10-03T08:59:49;15.50;99.90
11501;DHT22;5807;51.606;7.624;2022-10-03T09:02:57;15.70;99.90
11501;DHT22;5807;51.606;7.624;2022-10-03T09:05:59;16.00;99.90
11501;DHT22;5807;51.606;7.624;2022-10-03T09:09:02;16.00;99.90
11501;DHT22;5807;51.606;7.624;2022-10-03T09:14:47;16.10;99.90
11501;DHT22;5807;51.606;7.624;2022-10-03T09:17:51;16.10;99.90
11501;DHT22;5807;51.606;7.624;2022-10-03T09:20:34;16.10;99.90
11501;DHT22;5807;51.606;7.624;2022-10-03T09:23:27;16.30;99.90
11501;DHT22;5807;51.606;7.624;2022-10-03T09:26:35;16.20;99.90
11501;DHT22;5807;51.606;7.624;2022-10-03T09:29:26;16.00;99.90
11501;DHT22;5807;51.606;7.624;2022-10-03T09:32:37;15.90;99.90
11501;DHT22;5807;51.606;7.624;2022-10-03T09:35:34;16.10;99.90
11501;DHT22;5807;51.606;7.624;2022-10-03T09:38:33;16.20;99.90
11501;DHT22;5807;51.606;7.624;2022-10-03T09:41:33;16.20;99.90
11501;DHT22;5807;51.606;7.624;2022-10-03T09:44:22;16.10;99.90
11501;DHT22;5807;51.606;7.624;2022-10-03T09:53:31;15.80;99.90
11501;DHT22;5807;51.606;7.624;2022-10-03T09:59:37;15.60;99.90
11501;DHT22;5807;51.606;7.624;2022-10-03T10:02:23;15.70;99.90
11501;DHT22;5807;51.606;7.624;2022-10-03T10:05:08;15.50;99.90
11501;DHT22;5807;51.606;7.624;2022-10-03T10:08:12;15.40;99.90
11501;DHT22;5807;51.606;7.624;2022-10-03T10:10:54;15.90;99.90
11501;DHT22;5807;51.606;7.624;2022-10-03T10:16:52;16.50;99.90
11501;DHT22;5807;51.606;7.624;2022-10-03T10:19:44;16.90;99.90
11501;DHT22;5807;51.606;7.624;2022-10-03T10:22:50;17.00;99.90
11501;DHT22;5807;51.606;7.624;2022-10-03T10:25:37;17.50;99.90
11501;DHT22;5807;51.606;7.624;2022-10-03T10:40:44;17.70;99.90
11501;DHT22;5807;51.606;7.624;2022-10-03T10:43:45;17.90;99.90
11501;DHT22;5807;51.606;7.624;2022-10-03T10:52:45;18.40;99.90
11501;DHT22;5807;51.606;7.624;2022-10-03T11:02:14;18.60;99.90
11501;DHT22;5807;51.606;7.624;2022-10-03T11:05:19;18.40;99.90
11501;DHT22;5807;51.606;7.624;2022-10-03T11:14:23;18.20;99.90
11501;DHT22;5807;51.606;7.624;2022-10-03T11:20:39;18.60;99.90
11501;DHT22;5807;51.606;7.624;2022-10-03T11:26:40;19.20;99.90
11501;DHT22;5807;51.606;7.624;2022-10-03T11:35:50;20.00;99.90
11501;DHT22;5807;51.606;7.624;2022-10-03T11:38:24;19.60;99.90
11501;DHT22;5807;51.606;7.624;2022-10-03T11:40:59;19.20;99.90
11501;DHT22;5807;51.606;7.624;2022-10-03T11:43:41;19.00;99.90
11501;DHT22;5807;51.606;7.624;2022-10-03T11:46:29;18.70;99.90
11501;DHT22;5807;51.606;7.624;2022-10-03T11:49:03;18.60;99.90
11501;DHT22;5807;51.606;7.624;2022-10-03T11:51:39;18.60;99.90
11501;DHT22;5807;51.606;7.624;2022-10-03T11:54:18;18.60;99.90
11501;DHT22;5807;51.606;7.624;2022-10-03T11:56:48;18.30;99.90
11501;DHT22;5807;51.606;7.624;2022-10-03T11:59:46;18.20;99.90
11501;DHT22;5807;51.606;7.624;2022-10-03T12:05:23;18.20;99.90
11501;DHT22;5807;51.606;7.624;2022-10-03T12:08:01;18.20;99.90
11501;DHT22;5807;51.606;7.624;2022-10-03T12:10:58;18.10;99.90
11501;DHT22;5807;51.606;7.624;2022-10-03T12:13:35;18.20;99.90
11501;DHT22;5807;51.606;7.624;2022-10-03T12:16:11;18.10;99.90
11501;DHT22;5807;51.606;7.624;2022-10-03T12:18:51;18.30;99.90
11501;DHT22;5807;51.606;7.624;2022-10-03T12:21:25;18.40;99.90
11501;DHT22;5807;51.606;7.624;2022-10-03T12:24:04;18.40;99.90
11501;DHT22;5807;51.606;7.624;2022-10-03T12:26:45;18.50;99.90
11501;DHT22;5807;51.606;7.624;2022-10-03T12:29:15;18.50;99.90
11501;DHT22;5807;51.606;7.624;2022-10-03T12:32:00;18.50;99.90
11501;DHT22;5807;51.606;7.624;2022-10-03T12:34:38;18.20;99.90
11501;DHT22;5807;51.606;7.624;2022-10-03T12:37:23;18.30;99.90
11501;DHT22;5807;51.606;7.624;2022-10-03T12:40:17;18.40;99.90
11501;DHT22;5807;51.606;7.624;2022-10-03T12:42:59;18.30;99.90
11501;DHT22;5807;51.606;7.624;2022-10-03T12:45:31;18.10;99.90
11501;DHT22;5807;51.606;7.624;2022-10-03T12:51:01;17.70;99.90
11501;DHT22;5807;51.606;7.624;2022-10-03T12:53:45;17.30;99.90
11501;DHT22;5807;51.606;7.624;2022-10-03T12:56:24;17.70;99.90
11501;DHT22;5807;51.606;7.624;2022-10-03T12:59:06;17.40;99.90
11501;DHT22;5807;51.606;7.624;2022-10-03T13:01:49;17.50;99.90
11501;DHT22;5807;51.606;7.624;2022-10-03T13:04:32;17.80;99.90
11501;DHT22;5807;51.606;7.624;2022-10-03T13:07:13;18.20;99.90
11501;DHT22;5807;51.606;7.624;2022-10-03T13:10:00;18.50;99.90
11501;DHT22;5807;51.606;7.624;2022-10-03T13:12:37;18.60;99.90
11501;DHT22;5807;51.606;7.624;2022-10-03T13:18:41;18.50;99.90
11501;DHT22;5807;51.606;7.624;2022-10-03T13:21:15;18.40;99.90
11501;DHT22;5807;51.606;7.624;2022-10-03T13:23:47;18.60;99.90
11501;DHT22;5807;51.606;7.624;2022-10-03T13:26:19;18.20;99.90
11501;DHT22;5807;51.606;7.624;2022-10-03T13:29:14;18.10;99.90
11501;DHT22;5807;51.606;7.624;2022-10-03T13:32:05;17.80;99.90
11501;DHT22;5807;51.606;7.624;2022-10-03T13:34:38;17.60;99.90
11501;DHT22;5807;51.606;7.624;2022-10-03T13:37:11;18.20;99.90
11501;DHT22;5807;51.606;7.624;2022-10-03T13:39:46;17.50;99.90
11501;DHT22;5807;51.606;7.624;2022-10-03T13:42:17;17.40;99.90
11501;DHT22;5807;51.606;7.624;2022-10-03T13:44:48;17.40;99.90
11501;DHT22;5807;51.606;7.624;2022-10-03T13:47:39;17.30;99.90
11501;DHT22;5807;51.606;7.624;2022-10-03T13:50:15;17.20;99.90
11501;DHT22;5807;51.606;7.624;2022-10-03T13:52:49;17.20;99.90
11501;DHT22;5807;51.606;7.624;2022-10-03T13:55:22;17.20;99.90
11501;DHT22;5807;51.606;7.624;2022-10-03T13:58:09;17.10;99.90
11501;DHT22;5807;51.606;7.624;2022-10-03T14:03:25;17.10;99.90
11501;DHT22;5807;51.606;7.624;2022-10-03T14:06:09;17.90;99.90
11501;DHT22;5807;51.606;7.624;2022-10-03T14:11:41;17.10;99.90
11501;DHT22;5807;51.606;7.624;2022-10-03T14:14:29;17.10;99.90
11501;DHT22;5807;51.606;7.624;2022-10-03T14:17:03;17.40;99.90
11501;DHT22;5807;51.606;7.624;2022-10-03T14:19:40;17.40;99.90
11501;DHT22;5807;51.606;7.624;2022-10-03T14:22:22;17.30;99.90
11501;DHT22;5807;51.606;7.624;2022-10-03T14:25:13;17.30;99.90
11501;DHT22;5807;51.606;7.624;2022-10-03T14:27:48;17.40;99.90
11501;DHT22;5807;51.606;7.624;2022-10-03T14:30:18;17.40;99.90
11501;DHT22;5807;51.606;7.624;2022-10-03T14:33:00;17.30;99.90
11501;DHT22;5807;51.606;7.624;2022-10-03T14:35:36;17.30;99.90
11501;DHT22;5807;51.606;7.624;2022-10-03T14:41:37;17.30;99.90
11501;DHT22;5807;51.606;7.624;2022-10-03T14:44:09;17.40;99.90
11501;DHT22;5807;51.606;7.624;2022-10-03T14:46:41;17.90;99.90
11501;DHT22;5807;51.606;7.624;2022-10-03T14:49:16;17.60;99.90
11501;DHT22;5807;51.606;7.624;2022-10-03T14:51:48;17.80;99.90
11501;DHT22;5807;51.606;7.624;2022-10-03T14:54:19;18.40;99.90
11501;DHT22;5807;51.606;7.624;2022-10-03T14:56:49;17.90;99.90
11501;DHT22;5807;51.606;7.624;2022-10-03T14:59:19;17.90;99.90
11501;DHT22;5807;51.606;7.624;2022-10-03T15:01:47;18.80;99.90
11501;DHT22;5807;51.606;7.624;2022-10-03T15:04:23;17.70;99.90
11501;DHT22;5807;51.606;7.624;2022-10-03T15:06:53;17.60;99.90
11501;DHT22;5807;51.606;7.624;2022-10-03T15:09:24;17.50;99.90
11501;DHT22;5807;51.606;7.624;2022-10-03T15:12:01;17.30;99.90
11501;DHT22;5807;51.606;7.624;2022-10-03T15:14:33;17.40;99.90
11501;DHT22;5807;51.606;7.624;2022-10-03T15:17:04;17.50;99.90
11501;DHT22;5807;51.606;7.624;2022-10-03T15:19:36;17.50;99.90
11501;DHT22;5807;51.606;7.624;2022-10-03T15:22:14;17.50;99.90
11501;DHT22;5807;51.606;7.624;2022-10-03T15:24:45;17.50;99.90
11501;DHT22;5807;51.606;7.624;2022-10-03T15:27:18;17.50;99.90
11501;DHT22;5807;51.606;7.624;2022-10-03T15:29:51;17.50;99.90
11501;DHT22;5807;51.606;7.624;2022-10-03T15:32:21;17.40;99.90
11501;DHT22;5807;51.606;7.624;2022-10-03T15:34:54;17.30;99.90
11501;DHT22;5807;51.606;7.624;2022-10-03T15:37:26;17.20;99.90
11501;DHT22;5807;51.606;7.624;2022-10-03T15:39:58;16.90;99.90
11501;DHT22;5807;51.606;7.624;2022-10-03T15:42:30;17.00;99.90
11501;DHT22;5807;51.606;7.624;2022-10-03T15:44:59;17.00;99.90
11501;DHT22;5807;51.606;7.624;2022-10-03T15:47:29;16.90;99.90
11501;DHT22;5807;51.606;7.624;2022-10-03T15:50:02;16.80;99.90
11501;DHT22;5807;51.606;7.624;2022-10-03T15:52:35;16.70;99.90
11501;DHT22;5807;51.606;7.624;2022-10-03T15:55:06;16.60;99.90
11501;DHT22;5807;51.606;7.624;2022-10-03T15:57:43;16.40;99.90
11501;DHT22;5807;51.606;7.624;2022-10-03T16:00:19;16.40;99.90
11501;DHT22;5807;51.606;7.624;2022-10-03T16:02:49;16.50;99.90
11501;DHT22;5807;51.606;7.624;2022-10-03T16:05:22;16.80;99.90
11501;DHT22;5807;51.606;7.624;2022-10-03T16:07:56;16.20;99.90
11501;DHT22;5807;51.606;7.624;2022-10-03T16:10:27;16.80;99.90
11501;DHT22;5807;51.606;7.624;2022-10-03T16:13:00;15.80;99.90
11501;DHT22;5807;51.606;7.624;2022-10-03T16:15:37;15.60;99.90
11501;DHT22;5807;51.606;7.624;2022-10-03T16:20:56;15.80;99.90
11501;DHT22;5807;51.606;7.624;2022-10-03T16:23:26;15.40;99.90
11501;DHT22;5807;51.606;7.624;2022-10-03T16:25:55;15.70;99.90
11501;DHT22;5807;51.606;7.624;2022-10-03T16:28:29;15.60;99.90
11501;DHT22;5807;51.606;7.624;2022-10-03T16:31:00;14.90;99.90
11501;DHT22;5807;51.606;7.624;2022-10-03T16:33:32;14.80;99.90
11501;DHT22;5807;51.606;7.624;2022-10-03T16:36:01;14.70;99.90
11501;DHT22;5807;51.606;7.624;2022-10-03T16:38:31;14.70;99.90
11501;DHT22;5807;51.606;7.624;2022-10-03T16:41:01;16.30;99.90
11501;DHT22;5807;51.606;7.624;2022-10-03T16:43:31;15.40;99.90
11501;DHT22;5807;51.606;7.624;2022-10-03T16:45:59;14.70;99.90
11501;DHT22;5807;51.606;7.624;2022-10-03T16:48:29;14.60;99.90
11501;DHT22;5807;51.606;7.624;2022-10-03T16:51:19;14.70;99.90
11501;DHT22;5807;51.606;7.624;2022-10-03T16:53:47;14.50;99.90
11501;DHT22;5807;51.606;7.624;2022-10-03T16:56:18;14.20;99.90
11501;DHT22;5807;51.606;7.624;2022-10-03T16:58:50;14.10;99.90
11501;DHT22;5807;51.606;7.624;2022-10-03T17:01:29;15.00;99.90
11501;DHT22;5807;51.606;7.624;2022-10-03T17:04:06;14.10;99.90
11501;DHT22;5807;51.606;7.624;2022-10-03T17:06:37;15.00;99.90
11501;DHT22;5807;51.606;7.624;2022-10-03T17:09:13;13.70;99.90
11501;DHT22;5807;51.606;7.624;2022-10-03T17:11:41;13.50;99.90
11501;DHT22;5807;51.606;7.624;2022-10-03T17:14:10;13.70;99.90
11501;DHT22;5807;51.606;7.624;2022-10-03T17:16:46;13.50;99.90
11501;DHT22;5807;51.606;7.624;2022-10-03T17:19:20;12.80;99.90
11501;DHT22;5807;51.606;7.624;2022-10-03T17:21:51;13.90;99.90
11501;DHT22;5807;51.606;7.624;2022-10-03T17:24:29;14.70;99.90
11501;DHT22;5807;51.606;7.624;2022-10-03T17:27:01;13.80;99.90
11501;DHT22;5807;51.606;7.624;2022-10-03T17:29:35;13.00;99.90
11501;DHT22;5807;51.606;7.624;2022-10-03T17:32:13;12.20;99.90
11501;DHT22;5807;51.606;7.624;2022-10-03T17:34:44;13.30;99.90
11501;DHT22;5807;51.606;7.624;2022-10-03T17:40:17;13.10;99.90
11501;DHT22;5807;51.606;7.624;2022-10-03T17:42:50;13.00;99.90
11501;DHT22;5807;51.606;7.624;2022-10-03T17:45:29;13.40;99.90
11501;DHT22;5807;51.606;7.624;2022-10-03T17:48:03;12.70;99.90
11501;DHT22;5807;51.606;7.624;2022-10-03T17:50:34;12.40;99.90
11501;DHT22;5807;51.606;7.624;2022-10-03T17:53:03;12.90;99.90
11501;DHT22;5807;51.606;7.624;2022-10-03T17:55:33;13.50;99.90
11501;DHT22;5807;51.606;7.624;2022-10-03T17:58:04;11.70;99.90
11501;DHT22;5807;51.606;7.624;2022-10-03T18:00:54;12.70;99.90
11501;DHT22;5807;51.606;7.624;2022-10-03T18:03:26;12.10;99.90
11501;DHT22;5807;51.606;7.624;2022-10-03T18:05:58;12.20;99.90
11501;DHT22;5807;51.606;7.624;2022-10-03T18:08:28;14.00;99.90
11501;DHT22;5807;51.606;7.624;2022-10-03T18:10:57;11.80;99.90
11501;DHT22;5807;51.606;7.624;2022-10-03T18:13:34;13.30;99.90
11501;DHT22;5807;51.606;7.624;2022-10-03T18:16:17;11.70;99.90
11501;DHT22;5807;51.606;7.624;2022-10-03T18:19:03;11.60;99.90
11501;DHT22;5807;51.606;7.624;2022-10-03T18:21:47;11.80;99.90
11501;DHT22;5807;51.606;7.624;2022-10-03T18:24:36;11.80;99.90
11501;DHT22;5807;51.606;7.624;2022-10-03T18:27:20;11.50;99.90
11501;DHT22;5807;51.606;7.624;2022-10-03T18:29:55;11.50;99.90
11501;DHT22;5807;51.606;7.624;2022-10-03T18:32:26;10.60;99.90
11501;DHT22;5807;51.606;7.624;2022-10-03T18:35:02;11.60;99.90
11501;DHT22;5807;51.606;7.624;2022-10-03T18:40:38;11.40;99.90
11501;DHT22;5807;51.606;7.624;2022-10-03T18:43:22;11.10;99.90
11501;DHT22;5807;51.606;7.624;2022-10-03T18:45:54;11.60;99.90
11501;DHT22;5807;51.606;7.624;2022-10-03T18:48:32;11.20;99.90
11501;DHT22;5807;51.606;7.624;2022-10-03T18:51:08;12.00;99.90
11501;DHT22;5807;51.606;7.624;2022-10-03T18:53:52;11.10;99.90
11501;DHT22;5807;51.606;7.624;2022-10-03T18:56:22;10.90;99.90
11501;DHT22;5807;51.606;7.624;2022-10-03T18:59:05;10.90;99.90
11501;DHT22;5807;51.606;7.624;2022-10-03T19:01:42;10.50;99.90
11501;DHT22;5807;51.606;7.624;2022-10-03T19:04:14;12.50;99.90
11501;DHT22;5807;51.606;7.624;2022-10-03T19:06:45;11.40;99.90
11501;DHT22;5807;51.606;7.624;2022-10-03T19:12:08;10.70;99.90
11501;DHT22;5807;51.606;7.624;2022-10-03T19:14:41;10.70;99.90
11501;DHT22;5807;51.606;7.624;2022-10-03T19:17:22;10.60;99.90
11501;DHT22;5807;51.606;7.624;2022-10-03T19:19:58;10.00;99.90
11501;DHT22;5807;51.606;7.624;2022-10-03T19:22:29;11.60;99.90
11501;DHT22;5807;51.606;7.624;2022-10-03T19:25:00;10.10;99.90
11501;DHT22;5807;51.606;7.624;2022-10-03T19:27:40;10.30;99.90
11501;DHT22;5807;51.606;7.624;2022-10-03T19:30:08;10.00;99.90
11501;DHT22;5807;51.606;7.624;2022-10-03T19:32:51;10.40;99.90
11501;DHT22;5807;51.606;7.624;2022-10-03T19:35:23;10.10;99.90
11501;DHT22;5807;51.606;7.624;2022-10-03T19:37:51;10.30;99.90
11501;DHT22;5807;51.606;7.624;2022-10-03T19:40:32;9.80;99.90
11501;DHT22;5807;51.606;7.624;2022-10-03T19:43:16;9.50;99.90
11501;DHT22;5807;51.606;7.624;2022-10-03T19:45:50;11.80;99.90
11501;DHT22;5807;51.606;7.624;2022-10-03T19:48:21;10.80;99.90
11501;DHT22;5807;51.606;7.624;2022-10-03T19:50:49;11.40;99.90
11501;DHT22;5807;51.606;7.624;2022-10-03T19:53:17;9.60;99.90
11501;DHT22;5807;51.606;7.624;2022-10-03T19:55:45;9.60;99.90
11501;DHT22;5807;51.606;7.624;2022-10-03T19:58:14;10.20;99.90
11501;DHT22;5807;51.606;7.624;2022-10-03T20:00:49;9.70;99.90
11501;DHT22;5807;51.606;7.624;2022-10-03T20:03:19;11.00;99.90
11501;DHT22;5807;51.606;7.624;2022-10-03T20:05:56;10.20;99.90
11501;DHT22;5807;51.606;7.624;2022-10-03T20:08:28;9.20;99.90
11501;DHT22;5807;51.606;7.624;2022-10-03T20:11:15;9.50;99.90
11501;DHT22;5807;51.606;7.624;2022-10-03T20:13:47;10.10;99.90